createdAt,value
2017-03-20T04:00:49.061Z,18.24
2017-03-20T04:01:14.632Z,18.19
2017-03-20T04:01:40.462Z,18.27
2017-03-20T04:02:06.173Z,18.27
2017-03-20T04:02:31.788Z,18.24
2017-03-20T04:02:58.064Z,18.31
2017-03-20T04:03:23.603Z,18.28
2017-03-20T04:03:49.189Z,18.24
2017-03-20T04:04:14.745Z,18.21
2017-03-20T04:04:41.040Z,18.24
2017-03-20T04:05:05.846Z,18.19
2017-03-20T04:05:31.409Z,18.19
2017-03-20T04:05:57.001Z,18.19
2017-03-20T04:06:22.659Z,18.29
2017-03-20T04:06:48.243Z,18.27
2017-03-20T04:07:13.794Z,18.25
2017-03-20T04:07:39.372Z,18.19
2017-03-20T04:08:04.921Z,18.28
2017-03-20T04:08:30.479Z,18.31
2017-03-20T04:08:56.049Z,18.28
2017-03-20T04:09:21.629Z,18.29
2017-03-20T04:09:47.205Z,18.22
2017-03-20T04:10:12.845Z,18.19
2017-03-20T04:10:38.415Z,18.31
2017-03-20T04:11:03.990Z,18.21
2017-03-20T04:11:29.612Z,18.22
2017-03-20T04:11:55.157Z,18.19
2017-03-20T04:12:20.760Z,18.27
2017-03-20T04:12:46.340Z,18.27
2017-03-20T04:13:11.927Z,18.25
2017-03-20T04:13:37.461Z,18.19
2017-03-20T04:14:03.012Z,18.29
2017-03-20T04:14:28.592Z,18.22
2017-03-20T04:14:54.182Z,18.29
2017-03-20T04:15:19.729Z,18.31
2017-03-20T04:15:45.304Z,18.18
2017-03-20T04:16:10.904Z,18.29
2017-03-20T04:16:36.468Z,18.28
2017-03-20T04:17:02.032Z,18.21
2017-03-20T04:17:27.620Z,18.28
2017-03-20T04:17:53.193Z,18.29
2017-03-20T04:18:18.770Z,18.33
2017-03-20T04:18:44.337Z,18.29
2017-03-20T04:19:09.900Z,18.31
2017-03-20T04:19:35.462Z,18.28
2017-03-20T04:20:01.079Z,18.29
2017-03-20T04:20:27.619Z,18.19
2017-03-20T04:20:53.177Z,18.29
2017-03-20T04:21:18.727Z,18.21
2017-03-20T04:21:44.277Z,18.21
2017-03-20T04:22:09.818Z,18.28
2017-03-20T04:22:35.390Z,18.28
2017-03-20T04:23:00.988Z,18.27
2017-03-20T04:23:26.529Z,18.19
2017-03-20T04:23:52.061Z,18.22
2017-03-20T04:24:17.622Z,18.22
2017-03-20T04:24:43.158Z,18.24
2017-03-20T04:25:08.724Z,18.24
2017-03-20T04:25:34.270Z,18.22
2017-03-20T04:25:59.879Z,18.22
2017-03-20T04:26:25.430Z,18.15
2017-03-20T04:26:51.020Z,18.29
2017-03-20T04:27:17.325Z,18.28
2017-03-20T04:27:42.914Z,18.27
2017-03-20T04:28:08.476Z,18.15
2017-03-20T04:28:34.048Z,18.31
2017-03-20T04:28:59.584Z,18.22
2017-03-20T04:29:25.127Z,18.19
2017-03-20T04:29:50.675Z,18.19
2017-03-20T04:30:16.329Z,18.24
2017-03-20T04:30:41.911Z,18.21
2017-03-20T04:31:07.446Z,18.22
2017-03-20T04:31:33.040Z,18.31
2017-03-20T04:31:58.590Z,18.17
2017-03-20T04:32:24.176Z,18.25
2017-03-20T04:32:49.730Z,18.19
2017-03-20T04:33:15.287Z,18.19
2017-03-20T04:33:40.949Z,18.24
2017-03-20T04:34:06.555Z,18.19
2017-03-20T04:34:32.105Z,18.19
2017-03-20T04:34:57.668Z,18.15
2017-03-20T04:35:23.232Z,18.22
2017-03-20T04:35:48.791Z,18.29
2017-03-20T04:36:14.349Z,18.28
2017-03-20T04:36:39.908Z,18.22
2017-03-20T04:37:05.479Z,18.22
2017-03-20T04:37:31.039Z,18.18
2017-03-20T04:37:56.690Z,18.21
2017-03-20T04:38:22.250Z,18.15
2017-03-20T04:38:48.412Z,18.19
2017-03-20T04:39:14.571Z,18.18
2017-03-20T04:39:40.130Z,18.17
2017-03-20T04:40:05.709Z,18.19
2017-03-20T04:40:31.279Z,18.17
2017-03-20T04:40:56.839Z,18.22
2017-03-20T04:41:22.420Z,18.19
2017-03-20T04:41:48.580Z,18.22
2017-03-20T04:42:14.262Z,18.22
2017-03-20T04:42:39.835Z,18.19
2017-03-20T04:43:05.391Z,18.21
2017-03-20T04:43:31.054Z,18.19
2017-03-20T04:43:56.611Z,18.31
2017-03-20T04:44:22.222Z,18.18
2017-03-20T04:44:47.779Z,18.19
2017-03-20T04:45:13.471Z,18.28
2017-03-20T04:45:39.031Z,18.27
2017-03-20T04:46:04.602Z,18.21
2017-03-20T04:46:30.202Z,18.27
2017-03-20T04:46:55.794Z,18.15
2017-03-20T04:47:21.353Z,18.28
2017-03-20T04:47:46.899Z,18.28
2017-03-20T04:48:12.449Z,18.17
2017-03-20T04:48:37.999Z,18.18
2017-03-20T04:49:03.640Z,18.19
2017-03-20T04:49:29.251Z,18.22
2017-03-20T04:49:54.788Z,18.22
2017-03-20T04:50:20.351Z,18.13
2017-03-20T04:50:45.901Z,18.15
2017-03-20T04:51:11.498Z,18.22
2017-03-20T04:51:37.097Z,18.18
2017-03-20T04:52:02.822Z,18.19
2017-03-20T04:52:28.367Z,18.18
2017-03-20T04:52:53.982Z,18.18
2017-03-20T04:53:19.542Z,18.19
2017-03-20T04:53:46.128Z,18.19
2017-03-20T04:54:10.653Z,18.27
2017-03-20T04:54:36.240Z,18.21
2017-03-20T04:55:02.668Z,18.29
2017-03-20T04:55:28.232Z,18.29
2017-03-20T04:55:53.800Z,18.22
2017-03-20T04:56:19.381Z,18.21
2017-03-20T04:56:44.946Z,18.21
2017-03-20T04:57:11.065Z,18.27
2017-03-20T04:57:36.650Z,18.29
2017-03-20T04:58:02.219Z,18.25
2017-03-20T04:58:27.768Z,18.24
2017-03-20T04:58:53.350Z,18.22
2017-03-20T04:59:18.913Z,18.27
2017-03-20T04:59:44.547Z,18.18
2017-03-20T05:00:10.078Z,18.22
2017-03-20T05:00:35.649Z,18.29
2017-03-20T05:01:28.933Z,18.24
2017-03-20T05:01:54.485Z,18.21
2017-03-20T05:02:20.051Z,18.18
2017-03-20T05:02:45.650Z,18.21
2017-03-20T05:03:11.205Z,18.28
2017-03-20T05:03:36.777Z,18.28
2017-03-20T05:04:02.351Z,18.22
2017-03-20T05:04:27.939Z,18.22
2017-03-20T05:04:53.492Z,18.31
2017-03-20T05:05:19.052Z,18.29
2017-03-20T05:05:44.619Z,18.24
2017-03-20T05:06:10.172Z,18.27
2017-03-20T05:06:35.750Z,18.31
2017-03-20T05:07:01.382Z,18.15
2017-03-20T05:07:26.928Z,18.28
2017-03-20T05:07:52.506Z,18.27
2017-03-20T05:08:18.085Z,18.31
2017-03-20T05:08:43.760Z,18.21
2017-03-20T05:09:09.331Z,18.29
2017-03-20T05:09:34.902Z,18.31
2017-03-20T05:10:00.451Z,18.29
2017-03-20T05:10:26.040Z,18.19
2017-03-20T05:10:51.601Z,18.29
2017-03-20T05:11:17.160Z,18.27
2017-03-20T05:11:42.729Z,18.22
2017-03-20T05:12:08.289Z,18.27
2017-03-20T05:12:33.840Z,18.19
2017-03-20T05:12:59.464Z,18.29
2017-03-20T05:13:25.070Z,18.29
2017-03-20T05:13:50.858Z,18.29
2017-03-20T05:14:16.460Z,18.28
2017-03-20T05:14:42.038Z,18.27
2017-03-20T05:15:07.608Z,18.29
2017-03-20T05:15:33.848Z,18.31
2017-03-20T05:15:58.710Z,18.28
2017-03-20T05:16:24.325Z,18.28
2017-03-20T05:16:49.910Z,18.31
2017-03-20T05:17:15.464Z,18.29
2017-03-20T05:17:41.930Z,18.29
2017-03-20T05:18:07.521Z,18.29
2017-03-20T05:18:33.089Z,18.33
2017-03-20T05:18:58.658Z,18.19
2017-03-20T05:19:24.293Z,18.28
2017-03-20T05:19:49.882Z,18.33
2017-03-20T05:20:15.437Z,18.22
2017-03-20T05:20:41.021Z,18.27
2017-03-20T05:21:06.608Z,18.25
2017-03-20T05:21:32.158Z,18.28
2017-03-20T05:21:57.725Z,18.31
2017-03-20T05:22:23.280Z,18.33
2017-03-20T05:22:48.808Z,18.24
2017-03-20T05:23:15.229Z,18.29
2017-03-20T05:23:40.782Z,18.25
2017-03-20T05:24:06.319Z,18.31
2017-03-20T05:24:31.869Z,18.28
2017-03-20T05:24:57.423Z,18.29
2017-03-20T05:25:22.969Z,18.33
2017-03-20T05:25:48.538Z,18.28
2017-03-20T05:26:14.125Z,18.22
2017-03-20T05:26:39.665Z,18.25
2017-03-20T05:27:05.220Z,18.27
2017-03-20T05:27:30.809Z,18.31
2017-03-20T05:27:56.381Z,18.33
2017-03-20T05:28:22.178Z,18.28
2017-03-20T05:28:47.823Z,18.27
2017-03-20T05:29:13.407Z,18.24
2017-03-20T05:29:38.941Z,18.29
2017-03-20T05:30:04.580Z,18.27
2017-03-20T05:30:30.142Z,18.27
2017-03-20T05:30:55.711Z,18.34
2017-03-20T05:31:21.258Z,18.28
2017-03-20T05:31:47.359Z,18.28
2017-03-20T05:32:12.385Z,18.34
2017-03-20T05:32:37.918Z,18.22
2017-03-20T05:33:03.467Z,18.31
2017-03-20T05:33:29.158Z,18.28
2017-03-20T05:33:54.692Z,18.28
2017-03-20T05:34:20.227Z,18.21
2017-03-20T05:34:45.914Z,18.27
2017-03-20T05:35:11.481Z,18.28
2017-03-20T05:36:20.053Z,18.28
2017-03-20T05:37:07.877Z,18.25
2017-03-20T05:37:33.453Z,18.28
2017-03-20T05:37:59.019Z,18.34
2017-03-20T05:38:24.603Z,18.28
2017-03-20T05:38:50.190Z,18.24
2017-03-20T05:39:15.838Z,18.31
2017-03-20T05:39:41.399Z,18.31
2017-03-20T05:40:06.966Z,18.27
2017-03-20T05:40:33.617Z,18.27
2017-03-20T05:40:58.199Z,18.33
2017-03-20T05:41:23.745Z,18.19
2017-03-20T05:41:49.299Z,18.31
2017-03-20T05:42:14.837Z,18.27
2017-03-20T05:42:42.619Z,18.27
2017-03-20T05:43:06.756Z,18.36
2017-03-20T05:43:33.118Z,18.28
2017-03-20T05:43:57.938Z,18.28
2017-03-20T05:44:23.504Z,18.33
2017-03-20T05:44:49.042Z,18.27
2017-03-20T05:45:14.611Z,18.34
2017-03-20T05:45:40.163Z,18.28
2017-03-20T05:46:05.712Z,18.34
2017-03-20T05:46:32.115Z,18.36
2017-03-20T05:46:56.814Z,18.28
2017-03-20T05:47:22.346Z,18.29
2017-03-20T05:47:47.890Z,18.33
2017-03-20T05:48:13.422Z,18.33
2017-03-20T05:48:39.035Z,18.25
2017-03-20T05:49:04.593Z,18.33
2017-03-20T05:49:30.158Z,18.27
2017-03-20T05:49:55.728Z,18.31
2017-03-20T05:50:21.299Z,18.31
2017-03-20T05:50:47.473Z,18.33
2017-03-20T05:51:13.678Z,18.27
2017-03-20T05:51:39.298Z,18.28
2017-03-20T05:52:04.871Z,18.33
2017-03-20T05:52:30.449Z,18.27
2017-03-20T05:52:56.624Z,18.31
2017-03-20T05:53:21.591Z,18.28
2017-03-20T05:53:47.162Z,18.25
2017-03-20T05:54:12.842Z,18.22
2017-03-20T05:54:38.404Z,18.27
2017-03-20T05:55:03.973Z,18.25
2017-03-20T05:55:29.572Z,18.27
2017-03-20T05:55:55.132Z,18.34
2017-03-20T05:56:20.701Z,18.29
2017-03-20T05:56:46.280Z,18.27
2017-03-20T05:57:11.841Z,18.24
2017-03-20T05:57:37.489Z,18.31
2017-03-20T05:58:03.058Z,18.27
2017-03-20T05:58:28.639Z,18.31
2017-03-20T05:58:54.207Z,18.34
2017-03-20T05:59:19.882Z,18.31
2017-03-20T05:59:45.481Z,18.28
2017-03-20T06:00:11.040Z,18.29
2017-03-20T06:00:36.671Z,18.24
2017-03-20T06:01:02.238Z,18.33
2017-03-20T06:01:27.973Z,18.34
2017-03-20T06:01:54.143Z,18.31
2017-03-20T06:02:19.077Z,18.34
2017-03-20T06:02:44.631Z,18.29
2017-03-20T06:03:10.189Z,18.28
2017-03-20T06:03:35.743Z,18.34
2017-03-20T06:04:01.317Z,18.34
2017-03-20T06:04:26.856Z,18.36
2017-03-20T06:04:52.422Z,18.34
2017-03-20T06:05:17.976Z,18.31
2017-03-20T06:05:43.605Z,18.36
2017-03-20T06:06:09.183Z,18.34
2017-03-20T06:06:34.755Z,18.25
2017-03-20T06:07:00.347Z,18.36
2017-03-20T06:07:25.939Z,18.31
2017-03-20T06:07:51.583Z,18.33
2017-03-20T06:08:17.270Z,18.33
2017-03-20T06:08:42.885Z,18.37
2017-03-20T06:09:08.452Z,18.34
2017-03-20T06:09:34.048Z,18.36
2017-03-20T06:09:59.611Z,18.34
2017-03-20T06:10:25.183Z,18.37
2017-03-20T06:10:50.742Z,18.39
2017-03-20T06:11:17.125Z,18.33
2017-03-20T06:11:41.942Z,18.31
2017-03-20T06:12:07.504Z,18.42
2017-03-20T06:12:33.121Z,18.36
2017-03-20T06:12:58.698Z,18.34
2017-03-20T06:13:24.239Z,18.36
2017-03-20T06:13:49.854Z,18.39
2017-03-20T06:14:15.404Z,18.31
2017-03-20T06:14:40.946Z,18.37
2017-03-20T06:15:06.609Z,18.33
2017-03-20T06:15:32.136Z,18.24
2017-03-20T06:15:57.697Z,18.34
2017-03-20T06:16:23.327Z,18.29
2017-03-20T06:16:48.911Z,18.33
2017-03-20T06:17:14.475Z,18.37
2017-03-20T06:17:40.039Z,18.31
2017-03-20T06:18:05.651Z,18.34
2017-03-20T06:18:31.201Z,18.33
2017-03-20T06:18:56.768Z,18.33
2017-03-20T06:19:22.319Z,18.34
2017-03-20T06:19:47.900Z,18.36
2017-03-20T06:20:13.468Z,18.39
2017-03-20T06:20:39.089Z,18.36
2017-03-20T06:21:04.662Z,18.28
2017-03-20T06:21:30.229Z,18.27
2017-03-20T06:21:55.834Z,18.39
2017-03-20T06:22:21.412Z,18.34
2017-03-20T06:22:46.976Z,18.34
2017-03-20T06:23:12.524Z,18.33
2017-03-20T06:23:38.157Z,18.37
2017-03-20T06:24:03.809Z,18.37
2017-03-20T06:24:29.401Z,18.34
2017-03-20T06:24:54.956Z,18.4
2017-03-20T06:25:20.634Z,18.34
2017-03-20T06:25:46.179Z,18.33
2017-03-20T06:26:11.728Z,18.39
2017-03-20T06:26:37.302Z,18.34
2017-03-20T06:27:03.645Z,18.37
2017-03-20T06:27:28.509Z,18.37
2017-03-20T06:27:54.074Z,18.28
2017-03-20T06:28:19.649Z,18.31
2017-03-20T06:28:45.202Z,18.34
2017-03-20T06:29:11.643Z,18.31
2017-03-20T06:29:36.311Z,18.37
2017-03-20T06:30:01.941Z,18.37
2017-03-20T06:30:27.504Z,18.42
2017-03-20T06:30:53.070Z,18.36
2017-03-20T06:31:18.819Z,18.34
2017-03-20T06:31:45.239Z,18.34
2017-03-20T06:32:10.801Z,18.31
2017-03-20T06:32:36.455Z,18.24
2017-03-20T06:33:02.030Z,18.37
2017-03-20T06:33:27.596Z,18.36
2017-03-20T06:33:53.159Z,18.39
2017-03-20T06:34:18.748Z,18.34
2017-03-20T06:34:44.307Z,18.33
2017-03-20T06:35:09.869Z,18.34
2017-03-20T06:35:35.411Z,18.34
2017-03-20T06:36:01.089Z,18.28
2017-03-20T06:36:26.634Z,18.34
2017-03-20T06:36:52.180Z,18.31
2017-03-20T06:37:17.732Z,18.37
2017-03-20T06:37:43.316Z,18.37
2017-03-20T06:38:08.903Z,18.36
2017-03-20T06:38:34.510Z,18.34
2017-03-20T06:39:00.091Z,18.36
2017-03-20T06:39:25.671Z,18.39
2017-03-20T06:39:51.295Z,18.36
2017-03-20T06:40:17.649Z,18.37
2017-03-20T06:40:43.419Z,18.37
2017-03-20T06:41:08.980Z,18.36
2017-03-20T06:41:34.551Z,18.34
2017-03-20T06:42:00.279Z,18.36
2017-03-20T06:42:25.862Z,18.36
2017-03-20T06:42:51.415Z,18.4
2017-03-20T06:43:17.033Z,18.34
2017-03-20T06:43:42.582Z,18.37
2017-03-20T06:44:09.151Z,18.34
2017-03-20T06:44:33.754Z,18.33
2017-03-20T06:44:59.434Z,18.31
2017-03-20T06:45:25.029Z,18.37
2017-03-20T06:45:51.303Z,18.4
2017-03-20T06:46:17.537Z,18.37
2017-03-20T06:46:43.152Z,18.36
2017-03-20T06:47:08.753Z,18.36
2017-03-20T06:47:34.356Z,18.37
2017-03-20T06:48:00.641Z,18.4
2017-03-20T06:48:25.526Z,18.34
2017-03-20T06:48:51.083Z,18.33
2017-03-20T06:49:16.762Z,18.34
2017-03-20T06:49:42.346Z,18.4
2017-03-20T06:50:07.897Z,18.37
2017-03-20T06:50:33.475Z,18.34
2017-03-20T06:50:59.042Z,18.34
2017-03-20T06:51:25.150Z,18.34
2017-03-20T06:51:50.860Z,18.37
2017-03-20T06:52:16.429Z,18.25
2017-03-20T06:52:43.025Z,18.37
2017-03-20T06:53:08.551Z,18.4
2017-03-20T06:53:34.132Z,18.33
2017-03-20T06:53:59.701Z,18.33
2017-03-20T06:54:25.275Z,18.39
2017-03-20T06:54:50.823Z,18.39
2017-03-20T06:55:16.389Z,18.34
2017-03-20T06:55:41.985Z,18.39
2017-03-20T06:56:07.544Z,18.31
2017-03-20T06:56:33.937Z,18.34
2017-03-20T06:56:59.502Z,18.39
2017-03-20T06:57:25.070Z,18.36
2017-03-20T06:57:50.733Z,18.37
2017-03-20T06:58:16.296Z,18.36
2017-03-20T06:58:41.852Z,18.34
2017-03-20T06:59:07.430Z,18.31
2017-03-20T06:59:32.988Z,18.37
2017-03-20T06:59:58.613Z,18.39
2017-03-20T07:00:24.179Z,18.29
2017-03-20T07:01:22.737Z,18.34
2017-03-20T07:01:48.318Z,18.29
2017-03-20T07:02:13.905Z,18.37
2017-03-20T07:02:40.014Z,18.4
2017-03-20T07:03:05.146Z,18.37
2017-03-20T07:03:30.730Z,18.34
2017-03-20T07:03:56.270Z,18.36
2017-03-20T07:04:21.829Z,18.37
2017-03-20T07:04:47.390Z,18.39
2017-03-20T07:05:13.023Z,18.37
2017-03-20T07:05:38.573Z,18.36
2017-03-20T07:06:04.133Z,18.36
2017-03-20T07:06:29.804Z,18.31
2017-03-20T07:06:55.353Z,18.31
2017-03-20T07:07:21.014Z,18.39
2017-03-20T07:07:46.620Z,18.33
2017-03-20T07:08:12.249Z,18.36
2017-03-20T07:08:37.800Z,18.42
2017-03-20T07:09:03.366Z,18.31
2017-03-20T07:09:29.045Z,18.37
2017-03-20T07:09:54.639Z,18.4
2017-03-20T07:10:20.319Z,18.33
2017-03-20T07:10:45.896Z,18.31
2017-03-20T07:11:11.477Z,18.37
2017-03-20T07:11:37.022Z,18.33
2017-03-20T07:12:02.599Z,18.36
2017-03-20T07:12:28.251Z,18.37
2017-03-20T07:12:53.807Z,18.37
2017-03-20T07:13:19.367Z,18.4
2017-03-20T07:13:44.930Z,18.36
2017-03-20T07:14:10.566Z,18.31
2017-03-20T07:14:36.176Z,18.28
2017-03-20T07:15:01.846Z,18.39
2017-03-20T07:15:27.403Z,18.28
2017-03-20T07:15:52.975Z,18.4
2017-03-20T07:16:18.558Z,18.36
2017-03-20T07:16:44.150Z,18.37
2017-03-20T07:17:09.752Z,18.4
2017-03-20T07:17:35.420Z,18.4
2017-03-20T07:18:01.004Z,18.34
2017-03-20T07:18:26.576Z,18.4
2017-03-20T07:18:52.146Z,18.34
2017-03-20T07:19:17.734Z,18.31
2017-03-20T07:19:43.292Z,18.36
2017-03-20T07:20:08.841Z,18.36
2017-03-20T07:20:34.413Z,18.37
2017-03-20T07:20:59.975Z,18.4
2017-03-20T07:21:25.550Z,18.42
2017-03-20T07:21:51.121Z,18.31
2017-03-20T07:22:16.679Z,18.27
2017-03-20T07:22:42.261Z,18.36
2017-03-20T07:23:07.824Z,18.31
2017-03-20T07:23:33.388Z,18.37
2017-03-20T07:23:58.962Z,18.34
2017-03-20T07:24:24.515Z,18.31
2017-03-20T07:25:33.152Z,18.33
2017-03-20T07:25:58.712Z,18.33
2017-03-20T07:26:24.299Z,18.36
2017-03-20T07:26:49.968Z,18.31
2017-03-20T07:27:15.548Z,18.36
2017-03-20T07:27:41.101Z,18.33
2017-03-20T07:28:07.237Z,18.36
2017-03-20T07:28:32.773Z,18.4
2017-03-20T07:28:58.321Z,18.31
2017-03-20T07:29:24.002Z,18.31
2017-03-20T07:29:49.552Z,18.33
2017-03-20T07:30:15.102Z,18.34
2017-03-20T07:30:40.634Z,18.31
2017-03-20T07:31:06.201Z,18.29
2017-03-20T07:31:31.843Z,18.36
2017-03-20T07:31:57.384Z,18.29
2017-03-20T07:32:22.954Z,18.37
2017-03-20T07:32:48.498Z,18.33
2017-03-20T07:33:14.042Z,18.34
2017-03-20T07:33:39.592Z,18.36
2017-03-20T07:34:05.142Z,18.34
2017-03-20T07:34:30.694Z,18.33
2017-03-20T07:34:56.319Z,18.36
2017-03-20T07:35:21.904Z,18.4
2017-03-20T07:35:47.472Z,18.36
2017-03-20T07:36:13.038Z,18.34
2017-03-20T07:36:38.598Z,18.34
2017-03-20T07:37:04.174Z,18.34
2017-03-20T07:37:29.754Z,18.42
2017-03-20T07:37:55.322Z,18.31
2017-03-20T07:38:20.888Z,18.4
2017-03-20T07:38:46.422Z,18.33
2017-03-20T07:39:12.002Z,18.42
2017-03-20T07:39:37.559Z,18.37
2017-03-20T07:40:03.773Z,18.39
2017-03-20T07:40:29.321Z,18.34
2017-03-20T07:40:54.867Z,18.33
2017-03-20T07:41:20.425Z,18.36
2017-03-20T07:41:45.980Z,18.31
2017-03-20T07:42:11.561Z,18.37
2017-03-20T07:42:37.115Z,18.4
2017-03-20T07:43:02.659Z,18.33
2017-03-20T07:43:28.216Z,18.39
2017-03-20T07:43:53.853Z,18.42
2017-03-20T07:44:19.408Z,18.33
2017-03-20T07:44:44.977Z,18.37
2017-03-20T07:45:10.591Z,18.34
2017-03-20T07:45:36.145Z,18.33
2017-03-20T07:46:24.291Z,18.33
2017-03-20T07:46:50.979Z,18.29
2017-03-20T07:48:57.349Z,18.37
2017-03-20T07:49:22.925Z,18.31
2017-03-20T07:49:48.481Z,18.36
2017-03-20T07:50:14.050Z,18.39
2017-03-20T07:50:39.645Z,18.34
2017-03-20T07:51:05.222Z,18.34
2017-03-20T07:51:30.803Z,18.34
2017-03-20T07:51:56.571Z,18.36
2017-03-20T07:52:22.139Z,18.39
2017-03-20T07:52:47.699Z,18.36
2017-03-20T07:53:13.253Z,18.36
2017-03-20T07:53:38.896Z,18.36
2017-03-20T07:54:04.467Z,18.4
2017-03-20T07:54:30.030Z,18.34
2017-03-20T07:54:55.722Z,18.39
2017-03-20T07:55:21.291Z,18.36
2017-03-20T07:55:46.849Z,18.29
2017-03-20T07:56:12.448Z,18.37
2017-03-20T07:56:38.126Z,18.39
2017-03-20T07:57:03.706Z,18.42
2017-03-20T07:57:29.370Z,18.33
2017-03-20T07:57:54.934Z,18.39
2017-03-20T07:58:20.517Z,18.37
2017-03-20T07:58:46.077Z,18.36
2017-03-20T07:59:11.823Z,18.42
2017-03-20T07:59:37.422Z,18.36
2017-03-20T08:00:02.988Z,18.34
2017-03-20T08:00:28.575Z,18.37
2017-03-20T08:00:54.710Z,18.33
2017-03-20T08:01:19.737Z,18.33
2017-03-20T08:01:45.293Z,18.29
2017-03-20T08:02:10.900Z,18.33
2017-03-20T08:02:36.458Z,18.42
2017-03-20T08:03:02.011Z,18.29
2017-03-20T08:03:27.627Z,18.42
2017-03-20T08:03:53.197Z,18.4
2017-03-20T08:04:18.780Z,18.33
2017-03-20T08:04:45.233Z,18.39
2017-03-20T08:05:10.790Z,18.36
2017-03-20T08:05:36.342Z,18.36
2017-03-20T08:06:01.912Z,18.33
2017-03-20T08:06:27.452Z,18.39
2017-03-20T08:06:53.018Z,18.34
2017-03-20T08:07:18.565Z,18.37
2017-03-20T08:07:44.221Z,18.31
2017-03-20T08:08:09.779Z,18.34
2017-03-20T08:08:35.357Z,18.39
2017-03-20T08:09:00.936Z,18.37
2017-03-20T08:09:26.490Z,18.31
2017-03-20T08:09:52.030Z,18.39
2017-03-20T08:10:17.589Z,18.29
2017-03-20T08:10:43.137Z,18.42
2017-03-20T08:11:08.726Z,18.33
2017-03-20T08:11:34.319Z,18.29
2017-03-20T08:11:59.958Z,18.37
2017-03-20T08:12:25.672Z,18.33
2017-03-20T08:12:51.240Z,18.33
2017-03-20T08:13:16.807Z,18.4
2017-03-20T08:13:42.411Z,18.31
2017-03-20T08:14:07.986Z,18.29
2017-03-20T08:14:33.551Z,18.36
2017-03-20T08:14:59.082Z,18.42
2017-03-20T08:15:24.642Z,18.36
2017-03-20T08:15:50.215Z,18.39
2017-03-20T08:16:15.799Z,18.39
2017-03-20T08:16:41.365Z,18.37
2017-03-20T08:17:06.930Z,18.4
2017-03-20T08:17:32.625Z,18.37
2017-03-20T08:17:58.197Z,18.34
2017-03-20T08:18:23.745Z,18.39
2017-03-20T08:18:49.349Z,18.29
2017-03-20T08:19:14.942Z,18.34
2017-03-20T08:19:40.503Z,18.42
2017-03-20T08:20:06.054Z,18.29
2017-03-20T08:20:31.638Z,18.42
2017-03-20T08:20:57.189Z,18.37
2017-03-20T08:21:22.758Z,18.39
2017-03-20T08:21:48.353Z,18.34
2017-03-20T08:22:13.909Z,18.39
2017-03-20T08:22:39.471Z,18.33
2017-03-20T08:23:05.051Z,18.33
2017-03-20T08:23:30.622Z,18.29
2017-03-20T08:23:56.231Z,18.36
2017-03-20T08:24:21.806Z,18.34
2017-03-20T08:24:47.353Z,18.37
2017-03-20T08:25:12.919Z,18.39
2017-03-20T08:25:38.537Z,18.31
2017-03-20T08:26:04.099Z,18.33
2017-03-20T08:26:29.731Z,18.33
2017-03-20T08:26:55.289Z,18.37
2017-03-20T08:27:20.844Z,18.36
2017-03-20T08:27:47.334Z,18.36
2017-03-20T08:28:12.914Z,18.36
2017-03-20T08:28:38.480Z,18.37
2017-03-20T08:29:04.040Z,18.4
2017-03-20T08:29:29.740Z,18.39
2017-03-20T08:29:55.318Z,18.36
2017-03-20T08:30:20.881Z,18.33
2017-03-20T08:30:46.456Z,18.34
2017-03-20T08:31:12.062Z,18.33
2017-03-20T08:31:37.640Z,18.37
2017-03-20T08:32:03.200Z,18.31
2017-03-20T08:32:28.844Z,18.36
2017-03-20T08:32:54.456Z,18.36
2017-03-20T08:33:20.029Z,18.39
2017-03-20T08:33:45.589Z,18.31
2017-03-20T08:34:11.261Z,18.29
2017-03-20T08:34:36.816Z,18.37
2017-03-20T08:35:02.376Z,18.31
2017-03-20T08:35:27.933Z,18.37
2017-03-20T08:35:53.615Z,18.33
2017-03-20T08:36:19.195Z,18.31
2017-03-20T08:36:44.758Z,18.34
2017-03-20T08:37:10.325Z,18.39
2017-03-20T08:37:36.727Z,18.39
2017-03-20T08:38:01.470Z,18.37
2017-03-20T08:38:27.768Z,18.33
2017-03-20T08:38:53.557Z,18.37
2017-03-20T08:39:19.135Z,18.33
2017-03-20T08:39:44.689Z,18.36
2017-03-20T08:40:10.261Z,18.33
2017-03-20T08:40:35.834Z,18.36
2017-03-20T08:41:01.391Z,18.34
2017-03-20T08:41:26.954Z,18.36
2017-03-20T08:41:52.677Z,18.31
2017-03-20T08:42:18.243Z,18.36
2017-03-20T08:42:43.788Z,18.31
2017-03-20T08:43:09.351Z,18.39
2017-03-20T08:43:34.910Z,18.37
2017-03-20T08:44:00.478Z,18.37
2017-03-20T08:44:26.030Z,18.33
2017-03-20T08:44:51.593Z,18.31
2017-03-20T08:45:17.137Z,18.39
2017-03-20T08:45:43.285Z,18.42
2017-03-20T08:46:08.872Z,18.39
2017-03-20T08:46:34.474Z,18.31
2017-03-20T08:47:00.086Z,18.34
2017-03-20T08:47:25.651Z,18.36
2017-03-20T08:47:51.228Z,18.4
2017-03-20T08:48:16.905Z,18.43
2017-03-20T08:48:42.469Z,18.33
2017-03-20T08:49:08.042Z,18.4
2017-03-20T08:49:33.658Z,18.31
2017-03-20T08:49:59.335Z,18.4
2017-03-20T08:50:24.877Z,18.34
2017-03-20T08:50:50.527Z,18.37
2017-03-20T08:51:16.118Z,18.4
2017-03-20T08:51:41.695Z,18.36
2017-03-20T08:52:07.456Z,18.4
2017-03-20T08:52:33.040Z,18.33
2017-03-20T08:52:58.636Z,18.33
2017-03-20T08:53:24.208Z,18.34
2017-03-20T08:53:49.760Z,18.33
2017-03-20T08:54:15.325Z,18.37
2017-03-20T08:54:40.889Z,18.34
2017-03-20T08:55:06.447Z,18.34
2017-03-20T08:55:32.087Z,18.36
2017-03-20T08:55:57.642Z,18.34
2017-03-20T08:56:23.227Z,18.36
2017-03-20T08:56:48.943Z,18.4
2017-03-20T08:57:14.545Z,18.4
2017-03-20T08:57:40.128Z,18.36
2017-03-20T08:58:05.702Z,18.43
2017-03-20T08:58:31.250Z,18.37
2017-03-20T08:58:56.808Z,18.43
2017-03-20T08:59:22.376Z,18.4
2017-03-20T08:59:47.929Z,18.37
2017-03-20T09:00:13.536Z,18.33
2017-03-20T09:00:39.124Z,18.37
2017-03-20T09:01:04.666Z,18.37
2017-03-20T09:01:30.251Z,18.37
2017-03-20T09:01:55.889Z,18.43
2017-03-20T09:02:21.468Z,18.33
2017-03-20T09:02:47.149Z,18.34
2017-03-20T09:03:12.698Z,18.42
2017-03-20T09:03:38.329Z,18.36
2017-03-20T09:04:03.898Z,18.42
2017-03-20T09:04:29.456Z,18.4
2017-03-20T09:04:55.024Z,18.42
2017-03-20T09:05:20.591Z,18.37
2017-03-20T09:05:46.148Z,18.36
2017-03-20T09:06:11.727Z,18.37
2017-03-20T09:06:37.280Z,18.39
2017-03-20T09:07:02.886Z,18.29
2017-03-20T09:07:28.451Z,18.39
2017-03-20T09:07:54.058Z,18.42
2017-03-20T09:08:19.608Z,18.34
2017-03-20T09:08:45.179Z,18.31
2017-03-20T09:09:10.727Z,18.33
2017-03-20T09:09:36.350Z,18.4
2017-03-20T09:10:02.605Z,18.36
2017-03-20T09:10:28.174Z,18.39
2017-03-20T09:10:53.755Z,18.34
2017-03-20T09:11:19.392Z,18.4
2017-03-20T09:11:45.742Z,18.39
2017-03-20T09:12:10.571Z,18.34
2017-03-20T09:12:36.155Z,18.33
2017-03-20T09:13:01.716Z,18.33
2017-03-20T09:13:27.293Z,18.34
2017-03-20T09:13:53.740Z,18.36
2017-03-20T09:14:19.344Z,18.33
2017-03-20T09:14:44.895Z,18.4
2017-03-20T09:15:10.459Z,18.4
2017-03-20T09:15:36.017Z,18.36
2017-03-20T09:16:01.601Z,18.4
2017-03-20T09:16:27.191Z,18.39
2017-03-20T09:16:52.754Z,18.43
2017-03-20T09:17:18.317Z,18.34
2017-03-20T09:17:43.870Z,18.31
2017-03-20T09:18:09.439Z,18.39
2017-03-20T09:18:35.027Z,18.37
2017-03-20T09:19:00.719Z,18.39
2017-03-20T09:19:26.332Z,18.31
2017-03-20T09:19:51.902Z,18.33
2017-03-20T09:20:17.494Z,18.33
2017-03-20T09:20:43.132Z,18.33
2017-03-20T09:21:08.702Z,18.43
2017-03-20T09:21:34.271Z,18.37
2017-03-20T09:21:59.930Z,18.36
2017-03-20T09:22:25.486Z,18.36
2017-03-20T09:22:51.072Z,18.43
2017-03-20T09:23:16.681Z,18.37
2017-03-20T09:23:42.243Z,18.34
2017-03-20T09:24:08.745Z,18.42
2017-03-20T09:24:33.395Z,18.44
2017-03-20T09:24:59.112Z,18.4
2017-03-20T09:25:24.672Z,18.37
2017-03-20T09:25:50.247Z,18.34
2017-03-20T09:26:15.841Z,18.33
2017-03-20T09:26:41.407Z,18.36
2017-03-20T09:27:06.988Z,18.39
2017-03-20T09:27:32.532Z,18.37
2017-03-20T09:27:58.104Z,18.4
2017-03-20T09:28:23.731Z,18.4
2017-03-20T09:28:49.342Z,18.36
2017-03-20T09:29:14.908Z,18.34
2017-03-20T09:29:40.489Z,18.37
2017-03-20T09:30:06.042Z,18.34
2017-03-20T09:30:31.657Z,18.37
2017-03-20T09:30:57.235Z,18.39
2017-03-20T09:31:22.819Z,18.37
2017-03-20T09:31:48.402Z,18.29
2017-03-20T09:32:13.960Z,18.39
2017-03-20T09:32:39.518Z,18.43
2017-03-20T09:33:05.114Z,18.37
2017-03-20T09:33:30.713Z,18.4
2017-03-20T09:33:56.279Z,18.4
2017-03-20T09:34:21.838Z,18.43
2017-03-20T09:34:47.911Z,18.4
2017-03-20T09:35:13.495Z,18.34
2017-03-20T09:35:39.028Z,18.4
2017-03-20T09:36:04.610Z,18.43